Cochise — ZGFY — position and weather

sailwx.info

Track history (hours):
 
Tides and Currents Weather Stations Pressure Air Temp Water Temp Dewpoint Dewpoint Depression Visibility Wind Speed Wind Dir Waves Ship Positions

Cochise

Last reported at 2018-Jul-17 22:26 UTC. Time now 2018-Jul-17 22:49 UTC.
Position N 44°13' W 069°03'.

Type: Pleasure craft. MMSI: 319100800.

Date/timePositionNaut miles runAvg speedWind from/ knotsBaromVisibWave heightAir tempDewpointWater temp
2018-Jul-17 22:26N 44°13' W 069°03'0 0.1
2018-Jul-17 21:57N 44°13' W 069°03'3 7.8
2018-Jul-17 21:30N 44°09' W 069°03'4 7.6
2018-Jul-17 20:59N 44°06' W 069°06'0 0.0
2018-Jul-17 20:28N 44°06' W 069°06'0 0.0
2018-Jul-17 19:58N 44°06' W 069°06'0 0.0
2018-Jul-17 19:26N 44°06' W 069°06'0 0.0
2018-Jul-17 18:53N 44°06' W 069°06'0 0.0
2018-Jul-17 18:25N 44°06' W 069°06'0 0.0
2018-Jul-17 17:59N 44°06' W 069°06'0 0.0
2018-Jul-17 17:29N 44°06' W 069°06'0 0.0
2018-Jul-17 16:58N 44°06' W 069°06'0 0.0
2018-Jul-17 16:28N 44°06' W 069°06'0 0.0
2018-Jul-17 15:58N 44°06' W 069°06'0 0.0
2018-Jul-17 15:30N 44°06' W 069°06'  
2018-Jul-14 15:59N 44°06' W 069°06'0 0.0
2018-Jul-14 15:30N 44°06' W 069°06'0 0.0
2018-Jul-13 16:08N 44°06' W 069°06'0 0.0
2018-Jul-13 15:58N 44°06' W 069°06'0 0.1
2018-Jul-13 15:29N 44°06' W 069°06'0 0.2
2018-Jul-13 15:00N 44°06' W 069°06'0 0.8
2018-Jul-13 14:28N 44°06' W 069°06'0 0.0
2018-Jul-12 23:38N 44°06' W 069°06'0 0.0
2018-Jul-12 23:30N 44°06' W 069°06'0 0.0
2018-Jul-12 23:00N 44°06' W 069°06'0 0.0
2018-Jul-12 22:30N 44°06' W 069°06'0 0.0
2018-Jul-12 22:00N 44°06' W 069°06'0 0.0
2018-Jul-12 21:28N 44°06' W 069°06'0 0.0
2018-Jul-12 21:00N 44°06' W 069°06'0 0.0
2018-Jul-10 22:28N 44°06' W 069°06'0 0.1
2018-Jul-10 22:00N 44°06' W 069°06'0 0.0
2018-Jul-10 21:30N 44°06' W 069°06'0 0.0
2018-Jul-10 21:00N 44°06' W 069°06'0 0.0
2018-Jul-10 20:30N 44°06' W 069°06'0 0.0
2018-Jul-10 20:00N 44°06' W 069°06'0 0.0
2018-Jul-10 19:30N 44°06' W 069°06'0 0.0
2018-Jul-10 18:58N 44°06' W 069°06'0 0.0
2018-Jul-10 18:30N 44°06' W 069°06'0 0.0
2018-Jul-10 18:00N 44°06' W 069°06'0 0.0
2018-Jul-10 17:30N 44°06' W 069°06'0 0.0
2018-Jul-10 05:06N 44°06' W 069°06'0 0.0
2018-Jul-10 05:00N 44°06' W 069°06'0 0.0
2018-Jul-10 00:59N 44°06' W 069°06'1 2.0
2018-Jul-10 00:30N 44°06' W 069°05'612.2
2018-Jul-10 00:00N 44°12' W 069°01'611.6
2018-Jul-09 23:30N 44°17' W 068°58'3 0.4
2018-Jul-09 15:04N 44°20' W 068°57'111.3
2018-Jul-09 15:00N 44°19' W 068°57'611.3
2018-Jul-09 14:30N 44°14' W 069°01'3 5.6
2018-Jul-09 14:00N 44°12' W 069°04'4 7.8
2018-Jul-09 13:30N 44°09' W 069°01'611.6
2018-Jul-09 13:00N 44°03' W 068°60'6111.2
2018-Jul-09 07:34N 43°03' W 069°14'510.9
2018-Jul-09 07:08N 42°58' W 069°15'110.7
2018-Jul-09 07:00N 42°57' W 069°15'810.9
2018-Jul-09 06:17N 42°49' W 069°18'3 9.9
2018-Jul-09 06:00N 42°47' W 069°19'1510.5
2018-Jul-09 04:35N 42°33' W 069°25'110.9
2018-Jul-09 04:28N 42°31' W 069°26'711.1
2018-Jul-09 03:51N 42°25' W 069°29'511.1
2018-Jul-09 03:24N 42°20' W 069°31'510.4
2018-Jul-09 02:57N 42°16' W 069°33'510.9
2018-Jul-09 02:30N 42°11' W 069°35'1810.8
2018-Jul-09 00:53N 41°54' W 069°42'  
Track history (hours):
 
Tides and Currents Weather Stations Pressure Air Temp Water Temp Dewpoint Dewpoint Depression Visibility Wind Speed Wind Dir Waves Ship Positions

Cochise

Last reported at 2018-Jul-17 22:26 UTC. Time now 2018-Jul-17 22:49 UTC.
Position N 44°13' W 069°03'.

Type: Pleasure craft. MMSI: 319100800.

Date/timePositionNaut miles runAvg speedWind from/ knotsBaromVisibWave heightAir tempDewpointWater temp
2018-Jul-17 22:26N 44°13' W 069°03'0 0.1
2018-Jul-17 21:57N 44°13' W 069°03'3 7.8
2018-Jul-17 21:30N 44°09' W 069°03'4 7.6
2018-Jul-17 20:59N 44°06' W 069°06'0 0.0
2018-Jul-17 20:28N 44°06' W 069°06'0 0.0
2018-Jul-17 19:58N 44°06' W 069°06'0 0.0
2018-Jul-17 19:26N 44°06' W 069°06'0 0.0
2018-Jul-17 18:53N 44°06' W 069°06'0 0.0
2018-Jul-17 18:25N 44°06' W 069°06'0 0.0
2018-Jul-17 17:59N 44°06' W 069°06'0 0.0
2018-Jul-17 17:29N 44°06' W 069°06'0 0.0
2018-Jul-17 16:58N 44°06' W 069°06'0 0.0
2018-Jul-17 16:28N 44°06' W 069°06'0 0.0
2018-Jul-17 15:58N 44°06' W 069°06'0 0.0
2018-Jul-17 15:30N 44°06' W 069°06'  
2018-Jul-14 15:59N 44°06' W 069°06'0 0.0
2018-Jul-14 15:30N 44°06' W 069°06'0 0.0
2018-Jul-13 16:08N 44°06' W 069°06'0 0.0
2018-Jul-13 15:58N 44°06' W 069°06'0 0.1
2018-Jul-13 15:29N 44°06' W 069°06'0 0.2
2018-Jul-13 15:00N 44°06' W 069°06'0 0.8
2018-Jul-13 14:28N 44°06' W 069°06'0 0.0
2018-Jul-12 23:38N 44°06' W 069°06'0 0.0
2018-Jul-12 23:30N 44°06' W 069°06'0 0.0
2018-Jul-12 23:00N 44°06' W 069°06'0 0.0
2018-Jul-12 22:30N 44°06' W 069°06'0 0.0
2018-Jul-12 22:00N 44°06' W 069°06'0 0.0
2018-Jul-12 21:28N 44°06' W 069°06'0 0.0
2018-Jul-12 21:00N 44°06' W 069°06'0 0.0
2018-Jul-10 22:28N 44°06' W 069°06'0 0.1
2018-Jul-10 22:00N 44°06' W 069°06'0 0.0
2018-Jul-10 21:30N 44°06' W 069°06'0 0.0
2018-Jul-10 21:00N 44°06' W 069°06'0 0.0
2018-Jul-10 20:30N 44°06' W 069°06'0 0.0
2018-Jul-10 20:00N 44°06' W 069°06'0 0.0
2018-Jul-10 19:30N 44°06' W 069°06'0 0.0
2018-Jul-10 18:58N 44°06' W 069°06'0 0.0
2018-Jul-10 18:30N 44°06' W 069°06'0 0.0
2018-Jul-10 18:00N 44°06' W 069°06'0 0.0
2018-Jul-10 17:30N 44°06' W 069°06'0 0.0
2018-Jul-10 05:06N 44°06' W 069°06'0 0.0
2018-Jul-10 05:00N 44°06' W 069°06'0 0.0
2018-Jul-10 00:59N 44°06' W 069°06'1 2.0
2018-Jul-10 00:30N 44°06' W 069°05'612.2
2018-Jul-10 00:00N 44°12' W 069°01'611.6
2018-Jul-09 23:30N 44°17' W 068°58'3 0.4
2018-Jul-09 15:04N 44°20' W 068°57'111.3
2018-Jul-09 15:00N 44°19' W 068°57'611.3
2018-Jul-09 14:30N 44°14' W 069°01'3 5.6
2018-Jul-09 14:00N 44°12' W 069°04'4 7.8
2018-Jul-09 13:30N 44°09' W 069°01'611.6
2018-Jul-09 13:00N 44°03' W 068°60'6111.2
2018-Jul-09 07:34N 43°03' W 069°14'510.9
2018-Jul-09 07:08N 42°58' W 069°15'110.7
2018-Jul-09 07:00N 42°57' W 069°15'810.9
2018-Jul-09 06:17N 42°49' W 069°18'3 9.9
2018-Jul-09 06:00N 42°47' W 069°19'1510.5
2018-Jul-09 04:35N 42°33' W 069°25'110.9
2018-Jul-09 04:28N 42°31' W 069°26'711.1
2018-Jul-09 03:51N 42°25' W 069°29'511.1
2018-Jul-09 03:24N 42°20' W 069°31'510.4
2018-Jul-09 02:57N 42°16' W 069°33'510.9
2018-Jul-09 02:30N 42°11' W 069°35'1810.8
2018-Jul-09 00:53N 41°54' W 069°42'  

Dump ship's entire track history